createdAt,value
2023-04-24T00:01:54.031Z,97403.75
2023-04-24T00:04:22.324Z,97395.91
2023-04-24T00:06:55.046Z,97396.47
2023-04-24T00:09:23.278Z,97391.63
2023-04-24T00:11:51.330Z,97393.69
2023-04-24T00:14:20.832Z,97394.00
2023-04-24T00:16:48.859Z,97388.81
2023-04-24T00:19:17.542Z,97387.31
2023-04-24T00:21:45.810Z,97386.72
2023-04-24T00:24:14.005Z,97393.44
2023-04-24T00:26:42.024Z,97388.00
2023-04-24T00:29:10.144Z,97385.56
2023-04-24T00:31:39.743Z,97379.81
2023-04-24T00:34:08.834Z,97378.78
2023-04-24T00:36:36.852Z,97378.81
2023-04-24T00:39:05.128Z,97373.16
2023-04-24T00:41:33.164Z,97383.91
2023-04-24T00:44:01.267Z,97372.25
2023-04-24T00:46:29.495Z,97370.81
2023-04-24T00:48:59.291Z,97372.16
2023-04-24T00:51:28.514Z,97369.94
2023-04-24T00:53:56.988Z,97365.84
2023-04-24T00:56:25.521Z,97373.03
2023-04-24T00:58:53.787Z,97368.97
2023-04-24T01:01:23.059Z,97361.16
2023-04-24T01:03:53.810Z,97359.41
2023-04-24T01:06:24.500Z,97361.59
2023-04-24T01:08:52.686Z,97355.13
2023-04-24T01:11:20.904Z,97352.28
2023-04-24T01:13:49.552Z,97356.38
2023-04-24T01:16:18.773Z,97356.88
2023-04-24T01:18:47.056Z,97357.69
2023-04-24T01:21:17.542Z,97356.78
2023-04-24T01:23:47.847Z,97353.78
2023-04-24T01:26:21.071Z,97350.06
2023-04-24T01:28:50.177Z,97340.41
2023-04-24T01:31:18.590Z,97346.66
2023-04-24T01:33:46.924Z,97340.47
2023-04-24T01:36:16.152Z,97337.56
2023-04-24T01:38:44.288Z,97339.41
2023-04-24T01:41:13.658Z,97341.97
2023-04-24T01:43:41.830Z,97329.69
2023-04-24T01:46:10.208Z,97329.56
2023-04-24T01:48:38.379Z,97332.91
2023-04-24T01:51:06.439Z,97330.56
2023-04-24T01:53:34.766Z,97325.81
2023-04-24T01:56:05.098Z,97330.50
2023-04-24T01:58:34.692Z,97320.84
2023-04-24T02:01:03.797Z,97315.25
2023-04-24T02:03:32.120Z,97318.63
2023-04-24T02:06:00.695Z,97317.25
2023-04-24T02:08:28.794Z,97310.44
2023-04-24T02:10:56.779Z,97307.34
2023-04-24T02:13:24.877Z,97296.53
2023-04-24T02:15:54.193Z,97308.16
2023-04-24T02:18:23.782Z,97301.09
2023-04-24T02:20:52.545Z,97296.31
2023-04-24T02:23:21.944Z,97294.69
2023-04-24T02:25:49.964Z,97290.00
2023-04-24T02:28:19.156Z,97283.25
2023-04-24T02:30:47.458Z,97283.06
2023-04-24T02:33:16.943Z,97286.28
2023-04-24T02:35:45.046Z,97279.22
2023-04-24T02:38:13.087Z,97275.78
2023-04-24T02:40:41.072Z,97273.97
2023-04-24T02:43:09.499Z,97273.53
2023-04-24T02:45:39.130Z,97272.50
2023-04-24T02:48:07.284Z,97275.03
2023-04-24T02:50:36.683Z,97270.53
2023-04-24T02:53:04.819Z,97265.66
2023-04-24T02:55:33.020Z,97266.31
2023-04-24T02:58:02.753Z,97259.16
2023-04-24T03:00:31.010Z,97263.66
2023-04-24T03:02:59.308Z,97258.41
2023-04-24T03:05:28.434Z,97267.84
2023-04-24T03:07:57.855Z,97261.44
2023-04-24T03:10:25.911Z,97263.66
2023-04-24T03:12:54.029Z,97269.22
2023-04-24T03:15:22.076Z,97261.44
2023-04-24T03:17:50.130Z,97265.09
2023-04-24T03:20:18.310Z,97271.38
2023-04-24T03:22:46.490Z,97274.69
2023-04-24T03:25:16.245Z,97271.06
2023-04-24T03:27:44.335Z,97256.44
2023-04-24T03:30:27.858Z,97259.97
2023-04-24T03:33:00.337Z,97263.78
2023-04-24T03:35:31.670Z,97265.06
2023-04-24T03:38:05.362Z,97269.13
2023-04-24T03:40:59.720Z,97272.53
2023-04-24T03:43:46.442Z,97263.78
2023-04-24T03:46:16.248Z,97279.72
2023-04-24T03:48:49.876Z,97265.91
2023-04-24T03:51:20.300Z,97270.44
2023-04-24T03:53:51.936Z,97274.25
2023-04-24T03:56:24.079Z,97272.22
2023-04-24T03:58:52.191Z,97271.69
2023-04-24T04:01:21.843Z,97279.19
2023-04-24T04:04:02.922Z,97283.31
2023-04-24T04:06:32.861Z,97275.19
2023-04-24T04:09:02.381Z,97272.97
2023-04-24T04:11:33.494Z,97272.75
2023-04-24T04:14:01.575Z,97269.22
2023-04-24T04:16:30.176Z,97274.91
2023-04-24T04:19:04.139Z,97270.44
2023-04-24T04:21:33.174Z,97274.03
2023-04-24T04:24:12.496Z,97269.75
2023-04-24T04:26:47.432Z,97274.03
2023-04-24T04:29:23.756Z,97264.53
2023-04-24T04:31:53.580Z,97260.47
2023-04-24T04:34:23.669Z,97256.31
2023-04-24T04:36:53.705Z,97254.81
2023-04-24T04:39:36.883Z,97258.03
2023-04-24T04:42:09.888Z,97252.56
2023-04-24T04:44:42.064Z,97253.22
2023-04-24T04:47:14.487Z,97250.53
2023-04-24T04:49:44.388Z,97253.94
2023-04-24T04:52:26.411Z,97253.59
2023-04-24T04:55:02.387Z,97260.56
2023-04-24T04:57:52.862Z,97255.63
2023-04-24T05:00:22.440Z,97259.78
2023-04-24T05:02:53.906Z,97255.38
2023-04-24T05:05:22.445Z,97262.75
2023-04-24T05:07:51.075Z,97261.69
2023-04-24T05:10:19.935Z,97255.88
2023-04-24T05:12:48.434Z,97254.72
2023-04-24T05:15:17.962Z,97261.31
2023-04-24T05:17:46.722Z,97254.78
2023-04-24T05:20:15.967Z,97252.66
2023-04-24T05:22:44.815Z,97256.56
2023-04-24T05:25:13.489Z,97250.53
2023-04-24T05:27:47.551Z,97251.38
2023-04-24T05:30:18.955Z,97245.47
2023-04-24T05:32:47.398Z,97254.47
2023-04-24T05:35:15.599Z,97257.16
2023-04-24T05:37:43.788Z,97254.22
2023-04-24T05:40:13.646Z,97253.78
2023-04-24T05:42:41.721Z,97246.28
2023-04-24T05:45:12.735Z,97248.97
2023-04-24T05:47:42.461Z,97246.22
2023-04-24T05:50:11.230Z,97248.09
2023-04-24T05:52:39.454Z,97239.66
2023-04-24T05:55:19.565Z,97239.88
2023-04-24T05:57:48.939Z,97238.63
2023-04-24T06:00:19.002Z,97235.72
2023-04-24T06:02:55.483Z,97243.34
2023-04-24T06:05:24.419Z,97241.00
2023-04-24T06:07:54.970Z,97235.34
2023-04-24T06:10:25.748Z,97228.47
2023-04-24T06:12:57.261Z,97227.75
2023-04-24T06:15:26.343Z,97229.88
2023-04-24T06:18:11.204Z,97225.16
2023-04-24T06:20:40.656Z,97227.59
2023-04-24T06:23:10.854Z,97230.56
2023-04-24T06:25:39.744Z,97224.97
2023-04-24T06:28:07.970Z,97230.78
2023-04-24T06:30:37.088Z,97225.53
2023-04-24T06:33:18.800Z,97228.56
2023-04-24T06:35:49.630Z,97220.72
2023-04-24T06:38:18.146Z,97225.00
2023-04-24T06:40:46.351Z,97224.41
2023-04-24T06:43:16.006Z,97214.50
2023-04-24T06:45:44.948Z,97220.03
2023-04-24T06:48:13.207Z,97219.06
2023-04-24T06:50:41.284Z,97216.47
2023-04-24T06:53:12.171Z,97204.09
2023-04-24T06:55:40.568Z,97207.75
2023-04-24T06:58:09.062Z,97206.75
2023-04-24T07:00:37.223Z,97207.41
2023-04-24T07:03:06.506Z,97208.41
2023-04-24T07:05:36.445Z,97208.28
2023-04-24T07:08:05.410Z,97208.25
2023-04-24T07:10:36.746Z,97198.97
2023-04-24T07:13:04.863Z,97200.97
2023-04-24T07:15:33.477Z,97195.03
2023-04-24T07:18:04.028Z,97189.72
2023-04-24T07:20:34.375Z,97191.69
2023-04-24T07:23:02.439Z,97192.25
2023-04-24T07:25:30.601Z,97195.72
2023-04-24T07:28:00.108Z,97195.91
2023-04-24T07:30:29.916Z,97189.53
2023-04-24T07:32:57.941Z,97182.34
2023-04-24T07:35:26.624Z,97186.09
2023-04-24T07:37:55.235Z,97186.88
2023-04-24T07:40:23.854Z,97186.34
2023-04-24T07:42:51.900Z,97182.38
2023-04-24T07:45:21.543Z,97174.69
2023-04-24T07:47:49.681Z,97171.84
2023-04-24T07:50:17.801Z,97177.94
2023-04-24T07:52:45.942Z,97180.50
2023-04-24T07:55:13.959Z,97177.59
2023-04-24T07:57:41.955Z,97171.25
2023-04-24T08:00:11.207Z,97170.34
2023-04-24T08:02:43.941Z,97171.53
2023-04-24T08:05:12.268Z,97161.41
2023-04-24T08:07:40.650Z,97165.44
2023-04-24T08:10:09.996Z,97158.72
2023-04-24T08:12:38.335Z,97159.28
2023-04-24T08:15:07.718Z,97151.91
2023-04-24T08:17:36.480Z,97163.47
2023-04-24T08:20:06.902Z,97160.81
2023-04-24T08:22:34.992Z,97154.13
2023-04-24T08:25:03.108Z,97150.84
2023-04-24T08:27:31.208Z,97156.88
2023-04-24T08:29:59.446Z,97148.91
2023-04-24T08:32:28.971Z,97151.16
2023-04-24T08:34:57.474Z,97149.94
2023-04-24T08:37:28.275Z,97149.56
2023-04-24T08:39:56.738Z,97131.22
2023-04-24T08:42:25.369Z,97140.06
2023-04-24T08:44:53.531Z,97140.63
2023-04-24T08:47:22.781Z,97137.09
2023-04-24T08:49:53.035Z,97135.50
2023-04-24T08:52:21.286Z,97139.34
2023-04-24T08:54:50.722Z,97140.84
2023-04-24T08:57:21.015Z,97132.75
2023-04-24T08:59:49.469Z,97141.81
2023-04-24T09:02:18.889Z,97127.72
2023-04-24T09:04:49.298Z,97129.75
2023-04-24T09:07:19.514Z,97127.03
2023-04-24T09:09:47.733Z,97123.00
2023-04-24T09:12:17.294Z,97119.72
2023-04-24T09:14:46.476Z,97122.63
2023-04-24T09:17:14.726Z,97118.41
2023-04-24T09:19:43.375Z,97124.72
2023-04-24T09:22:12.393Z,97117.31
2023-04-24T09:24:40.982Z,97112.84
2023-04-24T09:27:11.297Z,97110.06
2023-04-24T09:29:40.982Z,97103.47
2023-04-24T09:32:22.738Z,97101.69
2023-04-24T09:34:52.058Z,97097.94
2023-04-24T09:37:31.026Z,97100.22
2023-04-24T09:40:14.000Z,97101.00
2023-04-24T09:42:42.588Z,97099.59
2023-04-24T09:45:16.068Z,97085.34
2023-04-24T09:47:45.060Z,97092.66
2023-04-24T09:50:16.925Z,97087.28
2023-04-24T09:52:47.283Z,97087.03
2023-04-24T09:55:21.320Z,97079.63
2023-04-24T09:57:53.613Z,97089.38
2023-04-24T10:00:26.328Z,97073.88
2023-04-24T10:02:59.017Z,97076.56
2023-04-24T10:05:29.926Z,97080.19
2023-04-24T10:08:03.953Z,97061.59
2023-04-24T10:10:33.084Z,97076.94
2023-04-24T10:13:02.029Z,97066.94
2023-04-24T10:15:32.184Z,97067.91
2023-04-24T10:18:01.141Z,97066.31
2023-04-24T10:20:31.684Z,97064.47
2023-04-24T10:23:01.110Z,97059.94
2023-04-24T10:25:31.341Z,97060.09
2023-04-24T10:28:01.093Z,97057.72
2023-04-24T10:30:31.957Z,97051.47
2023-04-24T10:33:02.036Z,97046.19
2023-04-24T10:35:33.309Z,97058.31
2023-04-24T10:38:06.005Z,97052.56
2023-04-24T10:40:36.176Z,97053.50
2023-04-24T10:43:07.197Z,97050.75
2023-04-24T10:45:36.612Z,97050.19
2023-04-24T10:48:07.253Z,97047.41
2023-04-24T10:50:45.813Z,97041.50
2023-04-24T10:53:19.304Z,97050.72
2023-04-24T10:55:49.233Z,97040.53
2023-04-24T10:58:18.806Z,97037.94
2023-04-24T11:00:58.547Z,97045.31
2023-04-24T11:03:28.894Z,97043.72
2023-04-24T11:06:03.086Z,97035.84
2023-04-24T11:08:33.270Z,97034.97
2023-04-24T11:11:10.421Z,97030.31
2023-04-24T11:14:04.217Z,97035.47
2023-04-24T11:16:35.656Z,97029.31
2023-04-24T11:19:05.928Z,97030.47
2023-04-24T11:21:34.924Z,97030.53
2023-04-24T11:24:25.892Z,97031.94
2023-04-24T11:26:55.537Z,97027.00
2023-04-24T11:29:24.542Z,97021.03
2023-04-24T11:31:55.266Z,97028.91
2023-04-24T11:34:24.419Z,97021.16
2023-04-24T11:36:52.689Z,97026.41
2023-04-24T11:39:20.838Z,97024.31
2023-04-24T11:41:49.377Z,97017.31
2023-04-24T11:44:22.645Z,97018.34
2023-04-24T11:46:50.690Z,97011.22
2023-04-24T11:49:20.058Z,97013.84
2023-04-24T11:51:53.486Z,97009.13
2023-04-24T11:54:22.356Z,97007.97
2023-04-24T11:56:51.556Z,97002.66
2023-04-24T11:59:19.757Z,97000.06
2023-04-24T12:01:48.349Z,96995.38
2023-04-24T12:04:17.282Z,97002.44
2023-04-24T12:07:04.726Z,96985.88
2023-04-24T12:09:43.768Z,96991.53
2023-04-24T12:12:13.657Z,96987.63
2023-04-24T12:14:50.755Z,96988.63
2023-04-24T12:17:19.117Z,96983.22
2023-04-24T12:19:49.057Z,96984.03
2023-04-24T12:22:18.799Z,96976.34
2023-04-24T12:25:03.484Z,96977.06
2023-04-24T12:27:34.088Z,96977.41
2023-04-24T12:30:04.028Z,96977.06
2023-04-24T12:32:32.124Z,96973.28
2023-04-24T12:35:00.612Z,96973.94
2023-04-24T12:37:37.495Z,96970.19
2023-04-24T12:40:08.172Z,96962.41
2023-04-24T12:42:37.354Z,96968.28
2023-04-24T12:45:07.085Z,96958.91
2023-04-24T12:47:36.224Z,96956.63
2023-04-24T12:50:04.746Z,96956.19
2023-04-24T12:52:34.230Z,96957.03
2023-04-24T12:55:03.010Z,96956.94
2023-04-24T12:57:32.244Z,96966.06
2023-04-24T13:00:00.941Z,96971.34
2023-04-24T13:02:32.268Z,96984.06
2023-04-24T13:05:01.102Z,96983.34
2023-04-24T13:07:29.825Z,96987.94
2023-04-24T13:09:59.654Z,96983.53
2023-04-24T13:12:28.056Z,97017.16
2023-04-24T13:14:56.858Z,96991.13
2023-04-24T13:17:25.020Z,96993.19
2023-04-24T13:19:57.353Z,97012.81
2023-04-24T13:22:26.041Z,96993.00
2023-04-24T13:24:54.162Z,96988.88
2023-04-24T13:27:23.798Z,97008.03
2023-04-24T13:29:52.267Z,97002.97
2023-04-24T13:32:20.642Z,97006.16
2023-04-24T13:34:49.305Z,96998.91
2023-04-24T13:37:17.343Z,97009.41
2023-04-24T13:39:45.515Z,97003.19
2023-04-24T13:42:13.811Z,97002.19
2023-04-24T13:44:43.673Z,97007.38
2023-04-24T13:47:11.795Z,97010.13
2023-04-24T13:49:39.926Z,96993.41
2023-04-24T13:52:08.399Z,97003.81
2023-04-24T13:54:36.442Z,97003.69
2023-04-24T13:57:05.442Z,97002.50
2023-04-24T13:59:33.560Z,97009.88
2023-04-24T14:02:02.977Z,97007.25
2023-04-24T14:04:31.416Z,97013.97
2023-04-24T14:06:59.450Z,97012.38
2023-04-24T14:09:27.506Z,97021.97
2023-04-24T14:11:55.509Z,97019.19
2023-04-24T14:14:23.706Z,97020.34
2023-04-24T14:16:52.025Z,97019.91
2023-04-24T14:19:21.457Z,97024.38
2023-04-24T14:21:49.580Z,97025.09
2023-04-24T14:24:17.821Z,97021.75
2023-04-24T14:26:46.104Z,97007.22
2023-04-24T14:29:15.340Z,97021.00
2023-04-24T14:31:44.450Z,97018.03
2023-04-24T14:34:13.785Z,97030.94
2023-04-24T14:36:44.300Z,97024.75
2023-04-24T14:39:12.870Z,97025.78
2023-04-24T14:41:41.395Z,97016.59
2023-04-24T14:44:11.614Z,97017.69
2023-04-24T14:46:39.819Z,97014.09
2023-04-24T14:49:10.628Z,97026.72
2023-04-24T14:51:38.802Z,97026.59
2023-04-24T14:54:08.402Z,97017.97
2023-04-24T14:56:36.723Z,97029.31
2023-04-24T14:59:05.112Z,97030.03
2023-04-24T15:01:33.256Z,97035.16
2023-04-24T15:04:01.475Z,97027.00
2023-04-24T15:06:31.947Z,97029.47
2023-04-24T15:09:00.105Z,97038.31
2023-04-24T15:11:29.695Z,97031.88
2023-04-24T15:13:58.018Z,97036.00
2023-04-24T15:16:26.287Z,97033.25
2023-04-24T15:18:54.573Z,97038.47
2023-04-24T15:21:22.682Z,97032.28
2023-04-24T15:23:50.968Z,97034.22
2023-04-24T15:26:19.801Z,97035.34
2023-04-24T15:28:49.575Z,97042.06
2023-04-24T15:31:17.764Z,97042.91
2023-04-24T15:33:46.186Z,97041.94
2023-04-24T15:36:14.740Z,97040.72
2023-04-24T15:38:42.861Z,97037.31
2023-04-24T15:41:10.956Z,97041.06
2023-04-24T15:43:39.879Z,97030.66
2023-04-24T15:46:09.590Z,97033.38
2023-04-24T15:48:39.928Z,97041.34
2023-04-24T15:51:08.105Z,97037.53
2023-04-24T15:53:36.242Z,97026.72
2023-04-24T15:56:04.716Z,97039.03
2023-04-24T15:58:32.893Z,97047.41
2023-04-24T16:01:01.658Z,97038.13
2023-04-24T16:03:31.259Z,97037.06
2023-04-24T16:05:59.487Z,97040.81
2023-04-24T16:08:27.505Z,97046.22
2023-04-24T16:10:55.780Z,97045.75
2023-04-24T16:13:23.994Z,97042.16
2023-04-24T16:15:53.007Z,97048.16
2023-04-24T16:18:21.108Z,97044.47
2023-04-24T16:20:52.175Z,97051.84
2023-04-24T16:23:20.336Z,97048.50
2023-04-24T16:25:48.527Z,97043.91
2023-04-24T16:28:17.127Z,97041.06
2023-04-24T16:30:45.268Z,97042.81
2023-04-24T16:33:13.472Z,97048.81
2023-04-24T16:35:41.454Z,97053.63
2023-04-24T16:38:11.365Z,97040.69
2023-04-24T16:40:42.479Z,97047.03
2023-04-24T16:43:10.793Z,97043.72
2023-04-24T16:45:39.129Z,97048.00
2023-04-24T16:48:07.842Z,97040.38
2023-04-24T16:50:36.014Z,97046.63
2023-04-24T16:53:04.245Z,97046.59
2023-04-24T16:55:33.640Z,97050.47
2023-04-24T16:58:02.350Z,97044.84
2023-04-24T17:00:30.470Z,97042.66
2023-04-24T17:02:58.667Z,97045.28
2023-04-24T17:05:26.871Z,97048.63
2023-04-24T17:07:55.029Z,97048.47
2023-04-24T17:10:23.141Z,97045.09
2023-04-24T17:12:52.735Z,97049.38
2023-04-24T17:15:20.803Z,97051.84
2023-04-24T17:17:48.973Z,97041.84
2023-04-24T17:20:22.959Z,97050.94
2023-04-24T17:22:52.212Z,97047.44
2023-04-24T17:25:21.510Z,97053.03
2023-04-24T17:27:49.634Z,97050.19
2023-04-24T17:30:19.131Z,97058.34
2023-04-24T17:32:47.438Z,97048.88
2023-04-24T17:35:15.575Z,97055.41
2023-04-24T17:37:43.612Z,97052.41
2023-04-24T17:40:13.074Z,97050.56
2023-04-24T17:42:42.508Z,97048.34
2023-04-24T17:45:12.013Z,97048.34
2023-04-24T17:47:42.209Z,97054.06
2023-04-24T17:50:10.748Z,97047.91
2023-04-24T17:52:38.753Z,97047.91
2023-04-24T17:55:07.754Z,97049.63
2023-04-24T17:57:35.920Z,97051.28
2023-04-24T18:00:04.905Z,97061.53
2023-04-24T18:02:34.038Z,97058.59
2023-04-24T18:05:03.691Z,97059.06
2023-04-24T18:07:31.699Z,97060.06
2023-04-24T18:09:59.760Z,97066.03
2023-04-24T18:12:27.956Z,97070.50
2023-04-24T18:15:06.758Z,97066.94
2023-04-24T18:17:41.827Z,97073.28
2023-04-24T18:20:12.479Z,97076.44
2023-04-24T18:22:41.097Z,97071.97
2023-04-24T18:25:09.896Z,97069.75
2023-04-24T18:27:38.661Z,97074.94
2023-04-24T18:30:08.585Z,97076.31
2023-04-24T18:32:37.134Z,97080.56
2023-04-24T18:35:05.783Z,97078.13
2023-04-24T18:37:35.268Z,97074.97
2023-04-24T18:40:03.846Z,97085.78
2023-04-24T18:42:32.005Z,97086.03
2023-04-24T18:45:01.828Z,97087.06
2023-04-24T18:47:30.086Z,97096.34
2023-04-24T18:49:58.379Z,97097.28
2023-04-24T18:52:26.732Z,97092.06
2023-04-24T18:54:56.224Z,97102.66
2023-04-24T18:57:24.280Z,97094.66
2023-04-24T18:59:52.294Z,97103.44
2023-04-24T19:02:20.869Z,97106.44
2023-04-24T19:04:49.022Z,97101.97
2023-04-24T19:07:19.367Z,97106.16
2023-04-24T19:09:47.491Z,97106.75
2023-04-24T19:12:16.972Z,97101.63
2023-04-24T19:14:45.103Z,97102.03
2023-04-24T19:17:13.178Z,97106.00
2023-04-24T19:19:41.332Z,97106.75
2023-04-24T19:22:09.391Z,97101.44
2023-04-24T19:24:37.490Z,97100.59
2023-04-24T19:27:05.504Z,97099.38
2023-04-24T19:29:34.916Z,97097.22
2023-04-24T19:32:03.083Z,97094.41
2023-04-24T19:34:32.148Z,97103.88
2023-04-24T19:37:00.615Z,97094.78
2023-04-24T19:39:30.604Z,97101.63
2023-04-24T19:42:00.345Z,97086.69
2023-04-24T19:44:28.491Z,97093.72
2023-04-24T19:46:58.121Z,97094.03
2023-04-24T19:49:26.287Z,97078.34
2023-04-24T19:51:54.290Z,97088.50
2023-04-24T19:54:22.771Z,97091.50
2023-04-24T19:56:50.724Z,97082.31
2023-04-24T19:59:19.168Z,97083.19
2023-04-24T20:01:47.242Z,97080.44
2023-04-24T20:04:16.728Z,97086.59
2023-04-24T20:06:44.849Z,97090.13
2023-04-24T20:09:12.887Z,97080.50
2023-04-24T20:11:41.134Z,97077.31
2023-04-24T20:14:09.212Z,97080.94
2023-04-24T20:16:38.594Z,97074.31
2023-04-24T20:19:06.616Z,97077.09
2023-04-24T20:21:36.134Z,97089.91
2023-04-24T20:24:04.528Z,97082.53
2023-04-24T20:26:32.704Z,97084.66
2023-04-24T20:29:00.709Z,97088.19
2023-04-24T20:31:28.861Z,97091.06
2023-04-24T20:33:56.978Z,97085.22
2023-04-24T20:36:25.693Z,97086.03
2023-04-24T20:38:55.132Z,97092.28
2023-04-24T20:41:24.761Z,97083.72
2023-04-24T20:43:52.942Z,97087.34
2023-04-24T20:46:21.158Z,97075.47
2023-04-24T20:48:50.184Z,97083.38
2023-04-24T20:51:19.651Z,97082.97
2023-04-24T20:53:49.352Z,97077.41
2023-04-24T20:56:19.330Z,97074.94
2023-04-24T20:58:47.890Z,97084.88
2023-04-24T21:01:16.493Z,97091.50
2023-04-24T21:03:44.886Z,97080.22
2023-04-24T21:06:12.961Z,97077.00
2023-04-24T21:08:41.081Z,97078.47
2023-04-24T21:11:09.048Z,97082.09
2023-04-24T21:13:38.557Z,97082.75
2023-04-24T21:16:07.029Z,97078.81
2023-04-24T21:18:35.587Z,97074.56
2023-04-24T21:21:03.731Z,97075.28
2023-04-24T21:23:31.763Z,97081.47
2023-04-24T21:26:00.138Z,97081.59
2023-04-24T21:28:28.370Z,97076.47
2023-04-24T21:30:57.741Z,97078.94
2023-04-24T21:33:25.842Z,97084.31
2023-04-24T21:35:53.862Z,97081.34
2023-04-24T21:38:24.585Z,97077.34
2023-04-24T21:40:53.340Z,97073.78
2023-04-24T21:43:28.093Z,97077.94
2023-04-24T21:46:03.353Z,97077.72
2023-04-24T21:48:31.455Z,97085.41
2023-04-24T21:50:59.414Z,97076.00
2023-04-24T21:53:29.591Z,97068.88
2023-04-24T21:55:57.774Z,97067.72
2023-04-24T21:58:25.913Z,97057.38
2023-04-24T22:00:54.068Z,97062.63
2023-04-24T22:03:26.793Z,97052.50
2023-04-24T22:05:56.657Z,97056.78
2023-04-24T22:08:24.753Z,97063.22
2023-04-24T22:10:53.207Z,97061.94
2023-04-24T22:13:21.430Z,97059.69
2023-04-24T22:15:51.367Z,97062.44
2023-04-24T22:18:19.463Z,97064.06
2023-04-24T22:20:48.791Z,97056.78
2023-04-24T22:23:16.981Z,97058.09
2023-04-24T22:25:45.044Z,97058.81
2023-04-24T22:28:13.174Z,97057.78
2023-04-24T22:30:41.288Z,97065.03
2023-04-24T22:33:10.037Z,97058.75
2023-04-24T22:35:38.051Z,97078.31
2023-04-24T22:38:07.490Z,97062.06
2023-04-24T22:40:36.072Z,97076.38
2023-04-24T22:43:04.230Z,97071.59
2023-04-24T22:45:32.472Z,97057.00
2023-04-24T22:48:00.637Z,97060.72
2023-04-24T22:50:29.163Z,97060.44
2023-04-24T22:52:57.188Z,97062.09
2023-04-24T22:55:26.611Z,97060.88
2023-04-24T22:57:57.254Z,97062.53
2023-04-24T23:00:25.643Z,97065.06
2023-04-24T23:02:53.966Z,97051.31
2023-04-24T23:05:22.837Z,97056.06
2023-04-24T23:07:50.827Z,97042.53
2023-04-24T23:10:19.227Z,97052.13
2023-04-24T23:12:48.942Z,97059.16
2023-04-24T23:15:17.021Z,97047.03
2023-04-24T23:17:45.136Z,97050.00
2023-04-24T23:20:14.635Z,97042.47
2023-04-24T23:22:43.015Z,97043.56
2023-04-24T23:25:11.372Z,97035.94
2023-04-24T23:27:39.413Z,97030.69
2023-04-24T23:30:10.066Z,97035.59
2023-04-24T23:32:38.088Z,97029.78
2023-04-24T23:35:06.744Z,97025.44
2023-04-24T23:37:35.742Z,97036.97
2023-04-24T23:40:06.150Z,97033.75
2023-04-24T23:42:34.215Z,97037.31
2023-04-24T23:45:02.262Z,97037.78
2023-04-24T23:47:31.783Z,97032.59
2023-04-24T23:49:59.847Z,97032.22
2023-04-24T23:52:27.980Z,97027.31
2023-04-24T23:54:56.063Z,97027.59
2023-04-24T23:57:24.145Z,97018.72
2023-04-24T23:59:52.137Z,97016.63
